Terminal Aerodrome Forecast
Issued by NWS Sterling, VA

Current Version | Previous Version | Text Only | Print | Product List | Glossary Off
Versions: 1 2 3 4 5 6 7 8 9 10 11 12 13 14 15 16 17 18

000
FTUS41 KLWX 270533
TAFMRB
TAF
KMRB 270533Z 2706/2806 VRB03KT P6SM SCT100
     FM270800 00000KT P6SM -SHRA BKN040
     FM271800 06004KT P6SM BKN030
     FM280000 VRB03KT 5SM -SHRA BKN030
     FM280200 VRB03KT 3SM -SHRA BKN025
     FM280500 00000KT 2SM -SHRA BKN025=

USA.gov is the U.S. government's official web portal to all federal, state and local government web resources and services.